Time;durP1;ratioP1;P1;durP2;ratioP2;P2;SDS_P1;SDS_P2;PMS_P1;PMS_P2;Temp;Humidity;BMP_temperature;BMP_pressure;BME280_temperature;BME280_humidity;BME280_pressure;Samples;Min_cycle;Max_cycle;Signal;HPM_P1;HPM_P2
2023/08/12 00:00:16;;;;;;;15.17;8.20;;;;;;;21.72;63.72;96593.81;5068991;28;20431;-69
2023/08/12 00:02:43;;;;;;;13.13;8.63;;;;;;;21.51;64.02;96594.66;5069102;28;20631;-69
2023/08/12 00:05:10;;;;;;;12.03;8.27;;;;;;;21.64;63.71;96588.25;5068287;28;20436;-69
2023/08/12 00:07:36;;;;;;;11.13;8.43;;;;;;;21.40;64.67;96592.03;5068377;28;20560;-69
2023/08/12 00:10:04;;;;;;;12.50;8.33;;;;;;;21.29;65.19;96584.06;5068212;28;20824;-69
2023/08/12 00:12:31;;;;;;;12.83;9.53;;;;;;;21.39;64.54;96586.81;5068399;28;20174;-69
2023/08/12 00:14:56;;;;;;;19.30;9.30;;;;;;;21.39;64.75;96574.31;5053105;28;20938;-69
2023/08/12 00:17:21;;;;;;;12.83;8.90;;;;;;;21.48;64.21;96580.72;5048177;28;20423;-69
2023/08/12 00:19:47;;;;;;;11.73;7.63;;;;;;;21.44;64.41;96581.97;5048323;28;20166;-69
2023/08/12 00:22:13;;;;;;;12.03;8.47;;;;;;;21.46;64.25;96580.00;5048395;28;20495;-69
2023/08/12 00:24:39;;;;;;;9.53;8.37;;;;;;;21.47;64.12;96574.53;5055656;28;20180;-69
2023/08/12 00:27:06;;;;;;;8.70;7.87;;;;;;;21.50;64.16;96574.28;5051913;28;20173;-68
2023/08/12 00:29:31;;;;;;;15.20;8.90;;;;;;;21.35;64.77;96576.41;5060785;28;20440;-68
2023/08/12 00:31:57;;;;;;;11.87;8.80;;;;;;;21.21;65.34;96575.84;5062971;28;20909;-70
2023/08/12 00:34:22;;;;;;;9.83;7.27;;;;;;;21.30;64.90;96570.59;5068620;28;20166;-70
2023/08/12 00:36:47;;;;;;;11.60;7.70;;;;;;;21.25;65.11;96563.94;5058826;28;20175;-70
2023/08/12 00:39:13;;;;;;;13.27;7.70;;;;;;;21.29;64.78;96558.22;5047564;28;20632;-69
2023/08/12 00:41:39;;;;;;;7.87;7.13;;;;;;;21.01;65.67;96561.53;5047860;28;20266;-70
2023/08/12 00:44:04;;;;;;;11.70;7.57;;;;;;;21.09;65.33;96561.72;5047733;28;20261;-70
2023/08/12 00:46:30;;;;;;;21.00;7.60;;;;;;;21.09;65.49;96569.72;5047907;28;20167;-68
2023/08/12 00:48:55;;;;;;;8.60;7.37;;;;;;;21.14;65.40;96564.84;5047441;28;20722;-69
2023/08/12 00:51:21;;;;;;;11.23;7.37;;;;;;;21.15;65.01;96561.22;5047497;28;20607;-69
2023/08/12 00:53:47;;;;;;;9.47;7.50;;;;;;;21.10;65.15;96552.75;5047794;28;20248;-69
2023/08/12 00:56:13;;;;;;;11.77;7.80;;;;;;;21.17;65.21;96553.09;5047431;28;20461;-69
2023/08/12 00:58:40;;;;;;;8.13;7.33;;;;;;;21.06;65.25;96556.66;5047553;28;20194;-68
2023/08/12 01:01:06;;;;;;;12.10;6.67;;;;;;;21.05;65.23;96550.47;5047415;28;20170;-69
2023/08/12 01:03:31;;;;;;;10.70;6.83;;;;;;;21.07;65.27;96542.31;5047202;28;20412;-70
2023/08/12 01:05:57;;;;;;;17.83;7.23;;;;;;;21.08;65.09;96544.03;5047272;28;20286;-70
2023/08/12 01:08:28;;;;;;;9.23;7.13;;;;;;;20.95;65.46;96549.53;5047158;28;20199;-70
2023/08/12 01:11:11;;;;;;;13.43;7.47;;;;;;;20.88;65.94;96543.00;5046875;28;20179;-69
2023/08/12 01:13:45;;;;;;;8.50;7.43;;;;;;;20.98;65.35;96545.78;5066935;28;20416;-70
2023/08/12 01:16:14;;;;;;;10.40;7.53;;;;;;;21.02;65.37;96541.84;5066719;28;20456;-69
2023/08/12 01:18:41;;;;;;;11.80;7.30;;;;;;;20.96;65.47;96534.38;5065726;28;20471;-68
2023/08/12 01:21:12;;;;;;;12.90;7.77;;;;;;;20.77;66.02;96545.75;5066779;28;20404;-70
2023/08/12 01:23:38;;;;;;;11.53;7.40;;;;;;;20.85;65.54;96529.94;5066844;28;20419;-69
2023/08/12 01:26:04;;;;;;;8.83;7.93;;;;;;;20.88;65.07;96532.34;5053009;28;20449;-69
2023/08/12 01:28:29;;;;;;;10.57;7.33;;;;;;;20.84;65.60;96531.75;5046580;28;20875;-69
2023/08/12 01:31:06;;;;;;;14.27;7.60;;;;;;;20.73;65.76;96529.97;5046713;28;20175;-69
2023/08/12 01:33:39;;;;;;;9.90;7.77;;;;;;;20.82;65.11;96528.38;5048704;28;20244;-69
2023/08/12 01:36:13;;;;;;;9.17;7.00;;;;;;;20.69;65.75;96525.88;5063807;28;20452;-69
2023/08/12 01:38:39;;;;;;;16.60;8.00;;;;;;;20.69;65.86;96531.22;5051840;28;20499;-69
2023/08/12 01:41:08;;;;;;;9.70;7.57;;;;;;;20.71;65.67;96531.06;5047134;28;20424;-69
2023/08/12 01:43:33;;;;;;;7.70;7.00;;;;;;;20.73;65.58;96532.63;5052611;28;20964;-69
2023/08/12 01:45:59;;;;;;;9.40;8.37;;;;;;;20.45;66.47;96527.84;5066664;28;20515;-69
2023/08/12 01:48:24;;;;;;;17.40;8.30;;;;;;;20.41;66.55;96529.94;5066589;28;20328;-69
2023/08/12 01:50:50;;;;;;;10.67;7.30;;;;;;;20.48;66.24;96531.13;5065966;28;20730;-69
2023/08/12 01:53:15;;;;;;;9.50;7.17;;;;;;;20.38;66.74;96531.97;5066387;28;20181;-69
2023/08/12 01:55:43;;;;;;;8.00;6.80;;;;;;;20.54;66.06;96534.25;5060721;28;20687;-67
2023/08/12 01:58:08;;;;;;;8.20;7.40;;;;;;;20.63;65.58;96533.53;5046167;28;20213;-70
2023/08/12 02:00:33;;;;;;;9.40;8.20;;;;;;;20.60;65.79;96531.09;5046079;28;20417;-68
2023/08/12 02:02:59;;;;;;;8.40;7.07;;;;;;;20.54;65.98;96535.09;5046371;28;20698;-69
2023/08/12 02:05:24;;;;;;;12.23;8.33;;;;;;;20.63;65.34;96531.72;5046401;28;20228;-69
2023/08/12 02:07:50;;;;;;;11.80;7.47;;;;;;;20.50;65.80;96528.31;5046348;28;20616;-69
2023/08/12 02:10:15;;;;;;;9.40;7.30;;;;;;;20.50;65.68;96529.19;5046078;28;20177;-69
2023/08/12 02:12:40;;;;;;;14.10;8.73;;;;;;;20.40;66.06;96522.03;5071437;28;20896;-68
2023/08/12 02:15:06;;;;;;;9.50;7.10;;;;;;;20.43;65.94;96522.66;5086098;28;20292;-69
2023/08/12 02:17:31;;;;;;;8.87;7.30;;;;;;;20.38;66.10;96524.81;5086003;28;20243;-70
2023/08/12 02:19:57;;;;;;;9.10;7.07;;;;;;;20.30;66.07;96517.47;5086197;28;20222;-69
2023/08/12 02:22:22;;;;;;;8.80;7.90;;;;;;;20.33;65.99;96510.19;5086472;28;20180;-70
2023/08/12 02:24:48;;;;;;;11.87;6.97;;;;;;;20.26;66.33;96509.84;5086194;28;20638;-69
2023/08/12 02:27:13;;;;;;;9.17;7.47;;;;;;;20.30;66.33;96514.78;5086337;28;20166;-69
2023/08/12 02:29:39;;;;;;;17.43;7.27;;;;;;;20.28;66.26;96518.56;5088864;28;20753;-69
2023/08/12 02:32:04;;;;;;;10.53;7.07;;;;;;;20.32;65.87;96513.84;5090434;28;20732;-69
2023/08/12 02:34:30;;;;;;;9.07;6.73;;;;;;;20.27;66.28;96512.38;5090365;28;20517;-69
2023/08/12 02:36:55;;;;;;;8.93;7.27;;;;;;;20.24;66.12;96509.94;5090177;28;20242;-69
2023/08/12 02:39:20;;;;;;;8.27;7.23;;;;;;;20.16;66.32;96503.56;5068395;28;20221;-69
2023/08/12 02:41:46;;;;;;;8.77;7.30;;;;;;;20.19;66.48;96509.47;5056663;28;20187;-69
2023/08/12 02:44:11;;;;;;;9.20;6.93;;;;;;;20.06;66.95;96509.63;5049783;28;20218;-69
2023/08/12 02:46:36;;;;;;;10.70;6.80;;;;;;;20.08;66.57;96507.69;5069491;28;20272;-69
2023/08/12 02:49:02;;;;;;;8.20;5.97;;;;;;;20.11;66.87;96503.94;5069635;28;20247;-69
2023/08/12 02:51:27;;;;;;;7.33;6.60;;;;;;;20.02;66.90;96510.84;5069851;28;20235;-69
2023/08/12 02:53:52;;;;;;;10.80;7.10;;;;;;;19.98;67.12;96506.72;5069764;28;20225;-69
2023/08/12 02:56:18;;;;;;;8.50;7.03;;;;;;;20.02;66.69;96502.00;5069480;28;20206;-69
2023/08/12 02:58:43;;;;;;;7.60;6.40;;;;;;;20.08;66.45;96501.53;5069562;28;20200;-69
2023/08/12 03:01:08;;;;;;;9.90;7.33;;;;;;;20.03;66.77;96493.03;5069542;28;20170;-70
2023/08/12 03:03:34;;;;;;;13.23;7.40;;;;;;;19.95;66.84;96490.16;5069605;28;20744;-69
2023/08/12 03:05:59;;;;;;;10.93;7.23;;;;;;;19.92;66.89;96488.59;5069562;28;20189;-69
2023/08/12 03:08:25;;;;;;;8.67;6.80;;;;;;;19.93;67.07;96490.28;5069223;28;20190;-69
2023/08/12 03:10:50;;;;;;;9.30;6.80;;;;;;;20.04;66.49;96495.59;5069267;28;20182;-69
2023/08/12 03:13:15;;;;;;;8.57;6.97;;;;;;;19.98;66.87;96495.22;5086880;28;20185;-69
2023/08/12 03:15:42;;;;;;;8.73;7.10;;;;;;;19.86;67.18;96492.56;5089614;28;20823;-70
2023/08/12 03:18:08;;;;;;;8.03;7.23;;;;;;;19.81;67.46;96493.91;5089684;28;20209;-68
2023/08/12 03:20:33;;;;;;;12.17;7.30;;;;;;;19.87;67.28;96493.44;5089485;28;20395;-70
2023/08/12 03:23:00;;;;;;;12.83;7.30;;;;;;;19.85;67.18;96498.03;5089731;28;20694;-69
2023/08/12 03:25:25;;;;;;;7.87;6.43;;;;;;;19.89;66.91;96502.16;5089573;28;20705;-69
2023/08/12 03:27:51;;;;;;;9.97;6.87;;;;;;;20.02;66.18;96497.53;5089612;28;20466;-69
2023/08/12 03:30:16;;;;;;;20.23;7.90;;;;;;;20.09;65.80;96497.88;5089271;28;20216;-69
2023/08/12 03:32:41;;;;;;;11.67;7.37;;;;;;;20.07;65.70;96495.34;5089469;28;20252;-69
2023/08/12 03:35:07;;;;;;;12.03;7.90;;;;;;;20.07;65.56;96498.00;5070898;28;20205;-69
2023/08/12 03:37:33;;;;;;;10.07;7.40;;;;;;;20.11;65.40;96487.97;5068903;28;20255;-69
2023/08/12 03:39:58;;;;;;;14.67;7.53;;;;;;;20.06;65.60;96491.00;5064771;28;20850;-69
2023/08/12 03:42:24;;;;;;;11.20;7.47;;;;;;;20.03;65.56;96499.25;5055413;28;20181;-69
2023/08/12 03:44:49;;;;;;;11.27;7.60;;;;;;;19.91;66.12;96500.19;5055742;28;20833;-69
2023/08/12 03:47:14;;;;;;;14.10;7.93;;;;;;;20.01;65.69;96506.50;5054360;28;20183;-69
2023/08/12 03:49:40;;;;;;;8.30;6.60;;;;;;;20.01;65.61;96503.84;5069142;28;20177;-69
2023/08/12 03:52:06;;;;;;;23.23;9.73;;;;;;;19.99;65.35;96492.47;5060383;28;20178;-70
2023/08/12 03:54:32;;;;;;;10.37;7.57;;;;;;;19.98;65.53;96493.41;5048682;28;20182;-70
2023/08/12 03:56:58;;;;;;;16.80;8.93;;;;;;;19.93;65.75;96492.09;5048535;28;20524;-69
2023/08/12 03:59:23;;;;;;;16.87;8.07;;;;;;;19.85;65.83;96485.56;5048227;28;20199;-70
2023/08/12 04:01:48;;;;;;;18.80;9.37;;;;;;;19.79;66.15;96487.88;5062462;28;20212;-69
2023/08/12 04:04:14;;;;;;;22.83;8.70;;;;;;;19.74;66.45;96485.56;5060229;28;20617;-70
2023/08/12 04:06:39;;;;;;;25.60;8.87;;;;;;;19.71;66.38;96490.31;5048973;28;20170;-69
2023/08/12 04:09:05;;;;;;;28.30;8.40;;;;;;;19.82;66.12;96488.47;5048189;28;20206;-69
2023/08/12 04:11:30;;;;;;;87.23;15.00;;;;;;;19.78;66.08;96484.34;5048335;28;20219;-69
2023/08/12 04:13:55;;;;;;;18.40;8.07;;;;;;;19.79;66.28;96490.53;5048349;28;20260;-69
2023/08/12 04:16:21;;;;;;;26.83;9.00;;;;;;;19.84;65.95;96483.00;5048340;28;20872;-69
2023/08/12 04:18:47;;;;;;;23.30;8.87;;;;;;;19.80;66.09;96487.75;5047805;28;20301;-68
2023/08/12 04:21:12;;;;;;;30.43;9.20;;;;;;;19.87;65.92;96482.78;5048231;28;20927;-69
2023/08/12 04:23:38;;;;;;;13.00;7.83;;;;;;;19.88;65.78;96476.47;5047787;28;20651;-69
2023/08/12 04:26:03;;;;;;;17.60;8.43;;;;;;;19.91;65.55;96484.22;5047895;28;20258;-69
2023/08/12 04:28:28;;;;;;;29.37;11.73;;;;;;;19.87;65.92;96480.97;5048033;28;20183;-70
2023/08/12 04:30:54;;;;;;;23.47;8.97;;;;;;;19.97;65.50;96481.06;5047646;28;20179;-70
2023/08/12 04:33:22;;;;;;;20.50;10.20;;;;;;;20.04;65.42;96489.41;5047846;28;20170;-69
2023/08/12 04:35:47;;;;;;;11.73;6.73;;;;;;;20.00;65.56;96477.31;5047853;28;20199;-67
2023/08/12 04:38:13;;;;;;;10.53;7.57;;;;;;;19.96;65.68;96476.72;5047879;28;20460;-69
2023/08/12 04:40:40;;;;;;;8.03;7.13;;;;;;;20.06;65.13;96477.66;5047689;28;20258;-69
2023/08/12 04:43:05;;;;;;;22.87;10.70;;;;;;;20.07;65.18;96482.00;5047705;28;20697;-69
2023/08/12 04:45:30;;;;;;;18.53;7.40;;;;;;;20.10;65.21;96486.25;5047941;28;20500;-69
2023/08/12 04:47:57;;;;;;;11.40;8.37;;;;;;;20.15;64.84;96480.53;5052542;28;20198;-68
2023/08/12 04:50:22;;;;;;;9.93;6.23;;;;;;;20.18;64.66;96482.97;5055956;28;20555;-69
2023/08/12 04:52:47;;;;;;;17.67;8.60;;;;;;;20.28;64.36;96486.59;5067535;28;20409;-69
2023/08/12 04:55:13;;;;;;;25.90;8.80;;;;;;;20.19;64.81;96472.19;5052304;28;20202;-70
2023/08/12 04:57:39;;;;;;;15.30;7.57;;;;;;;20.29;64.21;96478.47;5047696;28;20202;-69
2023/08/12 05:00:08;;;;;;;13.33;7.87;;;;;;;20.32;64.27;96473.88;5047558;28;20722;-69
2023/08/12 05:02:34;;;;;;;13.87;7.90;;;;;;;20.38;63.85;96478.69;5048465;28;20213;-70
2023/08/12 05:04:59;;;;;;;23.43;9.40;;;;;;;20.64;62.91;96477.41;5053919;28;20509;-70
2023/08/12 05:07:25;;;;;;;26.00;9.50;;;;;;;20.97;62.03;96474.69;5062832;28;20174;-68
2023/08/12 05:09:50;;;;;;;17.20;7.80;;;;;;;21.75;59.34;96468.81;5067222;28;20250;-67
2023/08/12 05:12:16;;;;;;;10.07;6.50;;;;;;;21.95;58.31;96468.91;5076802;28;20174;-67
2023/08/12 05:14:41;;;;;;;148.93;17.37;;;;;;;21.80;58.82;96465.75;5087669;28;20733;-67
2023/08/12 05:17:07;;;;;;;105.53;18.23;;;;;;;21.47;59.68;96464.22;5087394;28;20199;-68
2023/08/12 05:19:32;;;;;;;121.90;15.33;;;;;;;21.34;60.49;96467.91;5086947;28;20209;-67
2023/08/12 05:21:58;;;;;;;81.73;13.13;;;;;;;21.25;60.63;96455.34;5087456;28;20244;-69
2023/08/12 05:24:23;;;;;;;17.83;7.20;;;;;;;21.39;60.50;96453.34;5087367;28;20181;-68
2023/08/12 05:26:49;;;;;;;30.10;8.73;;;;;;;21.62;59.62;96467.38;5087622;28;20906;-67
2023/08/12 05:29:14;;;;;;;34.53;9.60;;;;;;;21.52;59.93;96472.66;5087084;28;20205;-68
2023/08/12 05:31:39;;;;;;;20.70;7.80;;;;;;;21.42;60.19;96477.13;5068997;28;20929;-67
2023/08/12 05:34:05;;;;;;;17.80;7.70;;;;;;;21.41;60.04;96478.09;5073385;28;20253;-68
2023/08/12 05:36:30;;;;;;;19.33;9.17;;;;;;;21.27;61.01;96481.94;5073592;28;20193;-69
2023/08/12 05:38:56;;;;;;;16.90;7.80;;;;;;;21.31;60.89;96481.53;5086593;28;20205;-68
2023/08/12 05:41:21;;;;;;;19.67;7.67;;;;;;;21.23;61.34;96481.31;5086976;28;20185;-67
2023/08/12 05:43:48;;;;;;;22.20;8.00;;;;;;;21.38;60.57;96473.84;5068426;28;20608;-68
2023/08/12 05:46:14;;;;;;;18.60;8.10;;;;;;;21.41;60.69;96470.09;5059030;28;20174;-67
2023/08/12 05:48:39;;;;;;;49.60;10.50;;;;;;;21.42;60.58;96469.94;5057759;28;20449;-66
2023/08/12 05:51:05;;;;;;;14.17;7.40;;;;;;;21.44;60.59;96476.00;5062242;28;20228;-66
2023/08/12 05:53:30;;;;;;;29.63;8.60;;;;;;;21.69;60.03;96473.88;5063772;28;20186;-69
2023/08/12 05:55:55;;;;;;;23.13;9.00;;;;;;;21.71;59.72;96474.59;5064073;28;20214;-68
2023/08/12 05:58:21;;;;;;;13.97;7.80;;;;;;;21.67;60.08;96475.84;5065046;28;20202;-68
2023/08/12 06:00:46;;;;;;;9.87;7.43;;;;;;;21.62;60.06;96480.75;5061170;28;20221;-68
2023/08/12 06:03:12;;;;;;;16.80;7.93;;;;;;;;;;5060991;28;20185;-69
2023/08/12 06:05:37;;;;;;;16.30;8.03;;;;;;;21.58;60.23;96472.13;5065985;28;20186;-69
2023/08/12 06:08:03;;;;;;;28.70;7.90;;;;;;;21.57;60.38;96483.81;5058740;28;20206;-68
2023/08/12 06:10:28;;;;;;;19.83;9.07;;;;;;;21.56;60.61;96482.09;5065224;28;20574;-68
2023/08/12 06:12:54;;;;;;;18.20;7.60;;;;;;;21.55;60.49;96483.09;5066432;28;20211;-68
2023/08/12 06:15:19;;;;;;;18.97;8.70;;;;;;;21.60;60.68;96480.88;5065635;28;20193;-69
2023/08/12 06:17:45;;;;;;;26.23;8.97;;;;;;;21.60;60.65;96485.38;5067471;28;20213;-67
2023/08/12 06:20:11;;;;;;;18.63;8.17;;;;;;;21.62;60.47;96478.06;5073757;28;20182;-68
2023/08/12 06:22:37;;;;;;;24.63;9.40;;;;;;;21.61;60.73;96479.88;5075832;28;20178;-68
2023/08/12 06:25:02;;;;;;;15.10;6.87;;;;;;;21.59;60.28;96468.50;5071552;28;20495;-68
2023/08/12 06:27:28;;;;;;;16.10;8.30;;;;;;;21.48;60.96;96471.25;5070277;28;20174;-68
2023/08/12 06:29:53;;;;;;;9.50;7.10;;;;;;;21.52;61.41;96467.31;5069941;28;20178;-67
2023/08/12 06:32:18;;;;;;;25.50;8.10;;;;;;;21.59;61.04;96470.31;5068878;28;20170;-67
2023/08/12 06:34:44;;;;;;;40.43;11.63;;;;;;;21.62;61.02;96472.72;5068233;28;20298;-68
2023/08/12 06:37:09;;;;;;;27.43;9.40;;;;;;;21.52;61.64;96473.53;5067527;28;20550;-67
2023/08/12 06:39:34;;;;;;;16.80;8.20;;;;;;;21.32;62.21;96480.53;5066512;28;20683;-67
2023/08/12 06:42:00;;;;;;;8.83;7.93;;;;;;;21.32;62.39;96475.19;5067122;28;20278;-68
2023/08/12 06:44:25;;;;;;;14.73;8.67;;;;;;;21.32;62.85;96475.19;5059560;28;20182;-68
2023/08/12 06:46:51;;;;;;;11.70;7.70;;;;;;;21.53;62.10;96472.53;5061813;28;20186;-67
2023/08/12 06:49:16;;;;;;;13.43;8.30;;;;;;;21.72;62.36;96476.28;5061013;28;20196;-68
2023/08/12 06:51:41;;;;;;;9.70;8.90;;;;;;;21.80;61.96;96470.25;5061681;28;20206;-67
2023/08/12 06:54:07;;;;;;;11.53;10.43;;;;;;;22.04;61.42;96478.78;5064146;28;20190;-69
2023/08/12 06:56:32;;;;;;;29.77;10.73;;;;;;;22.53;59.73;96469.03;5064406;28;20298;-68
2023/08/12 06:58:57;;;;;;;25.60;8.80;;;;;;;22.93;58.62;96465.38;5063318;28;20194;-67
2023/08/12 07:01:23;;;;;;;14.80;8.57;;;;;;;23.11;57.54;96460.19;5061898;28;20186;-69
2023/08/12 07:03:48;;;;;;;14.10;8.03;;;;;;;22.97;57.94;96458.75;5063683;28;20232;-67
2023/08/12 07:06:14;;;;;;;13.43;8.43;;;;;;;23.35;57.41;96461.53;5064512;28;20260;-67
2023/08/12 07:08:39;;;;;;;17.93;9.27;;;;;;;23.42;56.72;96460.81;5064614;28;20200;-66
2023/08/12 07:11:04;;;;;;;16.17;9.10;;;;;;;23.17;57.50;96462.28;5064180;28;20829;-68
2023/08/12 07:13:30;;;;;;;12.43;7.57;;;;;;;23.24;57.22;96467.88;5063253;28;20223;-67
2023/08/12 07:15:55;;;;;;;17.07;9.60;;;;;;;22.92;58.00;96458.34;5065015;28;20237;-69
2023/08/12 07:18:22;;;;;;;9.60;8.57;;;;;;;22.93;57.92;96457.34;5066999;28;20704;-68
2023/08/12 07:20:48;;;;;;;19.90;10.20;;;;;;;23.01;58.16;96457.53;5066241;28;20170;-68
2023/08/12 07:23:13;;;;;;;18.23;9.30;;;;;;;22.80;59.62;96464.84;5068018;28;20411;-68
2023/08/12 07:25:39;;;;;;;13.37;9.60;;;;;;;22.79;59.29;96461.28;5066569;28;20289;-68
2023/08/12 07:28:04;;;;;;;30.43;11.60;;;;;;;23.22;58.67;96456.47;5067469;28;20280;-68
2023/08/12 07:30:30;;;;;;;12.43;9.77;;;;;;;23.53;57.64;96451.75;5065409;28;20179;-66
2023/08/12 07:32:55;;;;;;;10.93;9.70;;;;;;;23.97;56.59;96454.69;5062905;28;20182;-68
2023/08/12 07:35:21;;;;;;;16.20;9.40;;;;;;;24.16;55.47;96459.09;5064876;28;20206;-68
2023/08/12 07:37:46;;;;;;;15.93;10.90;;;;;;;24.54;55.12;96467.91;5061016;28;20564;-66
2023/08/12 07:40:12;;;;;;;19.40;10.20;;;;;;;24.89;54.30;96464.38;5061127;28;20282;-68
2023/08/12 07:42:37;;;;;;;27.43;10.77;;;;;;;24.90;53.94;96463.41;5062966;28;20178;-67
2023/08/12 07:45:03;;;;;;;15.67;11.10;;;;;;;25.44;52.71;96465.16;5066415;28;20413;-69
2023/08/12 07:47:29;;;;;;;20.80;8.30;;;;;;;25.89;50.67;96470.31;5067552;28;20185;-66
2023/08/12 07:49:54;;;;;;;13.97;7.63;;;;;;;25.89;49.94;96467.63;5059356;28;20691;-67
2023/08/12 07:52:20;;;;;;;19.03;10.07;;;;;;;26.03;51.06;96459.94;5062435;28;20179;-67
2023/08/12 07:54:45;;;;;;;15.50;10.20;;;;;;;26.41;50.24;96458.56;5062172;28;20198;-67
2023/08/12 07:57:10;;;;;;;34.77;11.77;;;;;;;26.12;50.70;96458.97;5067583;28;20258;-66
2023/08/12 07:59:36;;;;;;;29.07;12.40;;;;;;;26.28;51.39;96455.50;5059057;28;20873;-69
2023/08/12 08:02:01;;;;;;;13.53;10.13;;;;;;;26.29;50.73;96459.84;5066502;28;20177;-69
2023/08/12 08:04:27;;;;;;;12.87;10.93;;;;;;;25.60;52.88;96459.88;5058273;28;20308;-72
2023/08/12 08:06:52;;;;;;;14.13;10.00;;;;;;;25.62;53.30;96457.03;5059973;28;20177;-72
2023/08/12 08:09:18;;;;;;;14.57;8.67;;;;;;;26.26;51.00;96455.66;5062471;28;20272;-72
2023/08/12 08:11:43;;;;;;;14.13;9.43;;;;;;;26.52;50.23;96455.53;5066173;28;20182;-72
2023/08/12 08:14:08;;;;;;;19.70;11.57;;;;;;;26.70;49.99;96451.91;5056399;28;20981;-72
2023/08/12 08:16:34;;;;;;;12.47;10.37;;;;;;;26.74;49.43;96453.25;5056922;28;20382;-72
2023/08/12 08:18:59;;;;;;;25.57;10.50;;;;;;;26.72;49.44;96448.06;5056748;28;20680;-72
2023/08/12 08:21:25;;;;;;;20.67;10.00;;;;;;;26.91;48.42;96440.66;5057093;28;20197;-70
2023/08/12 08:23:50;;;;;;;12.50;8.00;;;;;;;26.34;49.78;96446.75;5058439;28;20237;-71
2023/08/12 08:26:16;;;;;;;10.17;9.00;;;;;;;26.23;50.54;96439.00;5060890;28;20204;-73
2023/08/12 08:28:42;;;;;;;9.23;8.30;;;;;;;26.02;51.40;96439.44;5058860;28;20331;-73
2023/08/12 08:31:09;;;;;;;21.00;8.17;;;;;;;25.90;51.21;96437.03;5058798;28;20186;-74
2023/08/12 08:33:34;;;;;;;10.77;9.13;;;;;;;26.09;51.18;96438.63;5058117;28;20451;-71
2023/08/12 08:35:59;;;;;;;11.93;8.13;;;;;;;26.04;51.42;96437.44;5060583;28;21105;-71
2023/08/12 08:38:25;;;;;;;9.77;8.50;;;;;;;26.61;50.14;96434.91;5057391;28;20243;-71
2023/08/12 08:40:51;;;;;;;19.00;8.03;;;;;;;27.03;48.78;96429.38;5056549;28;20186;-72
2023/08/12 08:43:21;;;;;;;19.80;7.80;;;;;;;27.29;47.67;96433.75;5059202;28;20175;-73
2023/08/12 08:45:47;;;;;;;8.70;7.77;;;;;;;27.08;48.06;96439.63;5057808;28;20420;-73
2023/08/12 08:48:12;;;;;;;15.87;8.00;;;;;;;27.27;48.22;96434.94;5058626;28;20448;-72
2023/08/12 08:50:40;;;;;;;23.90;8.47;;;;;;;27.43;47.16;96434.91;5058316;28;20471;-72
2023/08/12 08:53:06;;;;;;;11.27;7.70;;;;;;;27.51;46.70;96434.03;5058193;28;20208;-72
2023/08/12 08:55:32;;;;;;;9.83;7.73;;;;;;;27.50;46.90;96444.00;5064929;28;21198;-72
2023/08/12 08:57:58;;;;;;;8.53;7.63;;;;;;;27.42;46.92;96441.28;5056255;28;20524;-73
2023/08/12 09:00:24;;;;;;;13.33;8.07;;;;;;;27.29;47.17;96446.41;5049572;28;20512;-72
2023/08/12 09:02:50;;;;;;;8.73;7.67;;;;;;;27.00;48.09;96451.25;5056268;28;20265;-72
2023/08/12 09:05:16;;;;;;;8.17;7.37;;;;;;;26.74;48.86;96453.25;5056991;28;20522;-72
2023/08/12 09:07:44;;;;;;;9.50;7.50;;;;;;;26.74;49.02;96466.72;5059521;28;20441;-72
2023/08/12 09:10:11;;;;;;;9.13;7.30;;;;;;;26.54;49.77;96474.25;5077998;28;20442;-73
2023/08/12 09:12:37;;;;;;;8.13;7.33;;;;;;;26.45;50.66;96467.97;5073296;28;21006;-71
2023/08/12 09:15:04;;;;;;;7.87;7.07;;;;;;;26.78;49.88;96466.22;5064541;28;20541;-73
2023/08/12 09:17:30;;;;;;;9.40;7.20;;;;;;;26.60;50.02;96460.16;5055510;28;20468;-72
2023/08/12 09:19:55;;;;;;;12.40;7.00;;;;;;;26.64;49.95;96469.56;5059955;28;20580;-71
2023/08/12 09:22:25;;;;;;;7.10;6.43;;;;;;;26.87;49.94;96460.84;5059154;28;20165;-71
2023/08/12 09:24:56;;;;;;;14.43;7.80;;;;;;;27.28;48.99;96466.25;5065047;28;20259;-72
2023/08/12 09:27:21;;;;;;;8.93;7.20;;;;;;;27.56;48.66;96459.47;5061698;28;20420;-73
2023/08/12 09:29:47;;;;;;;7.87;7.17;;;;;;;27.37;48.67;96454.44;5064423;28;20423;-73
2023/08/12 09:32:13;;;;;;;10.20;7.40;;;;;;;27.06;49.47;96457.81;5061656;28;20218;-72
2023/08/12 09:34:55;;;;;;;13.07;7.23;;;;;;;27.16;49.26;96455.78;5065133;28;20635;-72
2023/08/12 09:37:23;;;;;;;10.57;6.77;;;;;;;27.16;49.28;96445.00;5061300;28;20503;-73
2023/08/12 09:39:50;;;;;;;10.60;7.63;;;;;;;27.17;49.35;96449.41;5059606;28;20522;-72
2023/08/12 09:42:16;;;;;;;7.07;6.37;;;;;;;27.04;49.98;96449.06;5058793;28;20424;-72
2023/08/12 09:44:42;;;;;;;113.47;69.63;;;;;;;27.01;50.41;96457.47;5058759;28;20423;-72
2023/08/12 09:47:10;;;;;;;35.07;23.43;;;;;;;26.80;51.02;96453.44;5057713;28;20545;-72
2023/08/12 09:49:37;;;;;;;10.87;7.33;;;;;;;27.23;50.07;96464.06;5055171;28;20690;-71
2023/08/12 09:52:07;;;;;;;14.93;7.33;;;;;;;27.32;49.44;96467.59;5064217;28;20427;-72
2023/08/12 09:54:33;;;;;;;13.83;8.57;;;;;;;27.27;49.95;96468.09;5062513;28;20417;-71
2023/08/12 09:57:00;;;;;;;9.53;7.03;;;;;;;27.18;50.10;96466.41;5053906;28;20413;-72
2023/08/12 09:59:36;;;;;;;7.47;6.70;;;;;;;27.22;50.34;96460.53;5060936;28;20637;-72
2023/08/12 10:02:09;;;;;;;8.57;7.23;;;;;;;27.13;50.31;96458.81;5057429;28;20483;-72
2023/08/12 10:04:40;;;;;;;6.80;6.20;;;;;;;27.06;49.66;96463.19;5059364;28;20433;-70
2023/08/12 10:07:07;;;;;;;8.60;6.77;;;;;;;26.88;49.69;96459.81;5054847;28;20411;-72
2023/08/12 10:09:33;;;;;;;6.40;5.80;;;;;;;26.76;50.28;96457.44;5056897;28;20493;-72
2023/08/12 10:11:59;;;;;;;8.77;6.30;;;;;;;26.76;50.27;96462.00;5056782;28;20474;-73
2023/08/12 10:14:25;;;;;;;9.47;6.50;;;;;;;26.71;50.09;96464.34;5056842;28;21374;-72
2023/08/12 10:16:52;;;;;;;8.73;6.50;;;;;;;26.77;50.56;96451.06;5061748;28;20918;-71
2023/08/12 10:19:21;;;;;;;8.57;6.20;;;;;;;26.79;50.29;96446.38;5051307;28;20448;-73
2023/08/12 10:21:48;;;;;;;9.30;6.40;;;;;;;26.73;50.66;96441.63;5057238;28;20448;-72
2023/08/12 10:24:16;;;;;;;6.70;6.00;;;;;;;26.77;50.70;96437.63;5057094;28;20420;-70
2023/08/12 10:26:42;;;;;;;7.00;6.37;;;;;;;27.21;49.39;96428.34;5054001;28;20515;-71
2023/08/12 10:29:07;;;;;;;9.20;6.43;;;;;;;27.40;48.38;96425.31;5051034;28;20459;-70
2023/08/12 10:31:33;;;;;;;10.00;5.97;;;;;;;27.83;47.03;96416.97;5058370;28;20439;-71
2023/08/12 10:33:58;;;;;;;10.67;5.97;;;;;;;28.10;46.31;96417.50;5064616;28;20261;-72
2023/08/12 10:36:26;;;;;;;6.03;5.43;;;;;;;27.87;46.39;96418.28;5056127;28;20193;-69
2023/08/12 10:38:52;;;;;;;6.33;5.73;;;;;;;28.18;45.06;96412.06;5055141;28;20296;-71
2023/08/12 10:41:20;;;;;;;4.63;4.23;;;;;;;28.60;44.40;96402.72;5062053;28;20501;-73
2023/08/12 10:43:59;;;;;;;8.33;5.30;;;;;;;29.02;43.22;96396.81;5064387;28;20208;-70
2023/08/12 10:46:33;;;;;;;7.57;5.60;;;;;;;29.05;43.08;96399.13;5057664;28;20477;-72
2023/08/12 10:49:04;;;;;;;8.40;4.90;;;;;;;28.98;42.55;96390.06;5055455;28;21043;-70
2023/08/12 10:52:02;;;;;;;14.87;5.23;;;;;;;28.83;42.43;96379.25;5059187;28;20431;-71
2023/08/12 10:54:30;;;;;;;5.93;3.90;;;;;;;28.39;43.77;96387.97;5034338;28;20450;-70
2023/08/12 10:57:11;;;;;;;11.13;6.73;;;;;;;28.34;44.12;96387.69;5062266;28;20539;-72
2023/08/12 10:59:45;;;;;;;6.57;5.27;;;;;;;28.15;45.02;96375.47;5063364;28;21038;-70
2023/08/12 11:02:29;;;;;;;5.13;4.50;;;;;;;27.96;45.90;96354.34;5069582;28;20419;-71
2023/08/12 11:05:00;;;;;;;5.27;4.77;;;;;;;27.67;46.19;96363.91;5064977;28;20510;-74
2023/08/12 11:07:45;;;;;;;6.37;4.97;;;;;;;27.74;46.54;96370.28;5069632;28;20419;-71
2023/08/12 11:10:17;;;;;;;15.30;5.30;;;;;;;28.22;45.47;96376.44;5067234;28;20424;-71
2023/08/12 11:12:51;;;;;;;5.33;4.87;;;;;;;28.42;44.74;96367.91;5071626;28;20423;-70
2023/08/12 11:15:18;;;;;;;5.80;4.83;;;;;;;28.62;44.71;96379.09;5061260;28;20471;-70
2023/08/12 11:17:46;;;;;;;5.33;4.83;;;;;;;28.48;43.71;96380.69;5053341;28;20532;-70
2023/08/12 11:20:12;;;;;;;6.20;4.23;;;;;;;28.49;43.76;96385.94;5061476;28;20919;-70
2023/08/12 11:22:40;;;;;;;5.90;4.73;;;;;;;28.31;43.66;96377.25;5058252;28;20420;-71